sensor_id;sensor_type;location;lat;lon;timestamp;temperature;humidity
46900;DHT22;32647;49.382;7.078;2024-03-06T00:02:09;2.50;99.90
46900;DHT22;32647;49.382;7.078;2024-03-06T00:04:55;2.50;99.90
46900;DHT22;32647;49.382;7.078;2024-03-06T00:07:41;2.50;99.90
46900;DHT22;32647;49.382;7.078;2024-03-06T00:10:27;2.50;99.90
46900;DHT22;32647;49.382;7.078;2024-03-06T00:13:13;2.50;99.90
46900;DHT22;32647;49.382;7.078;2024-03-06T00:15:59;2.60;99.90
46900;DHT22;32647;49.382;7.078;2024-03-06T00:18:45;2.60;99.90
46900;DHT22;32647;49.382;7.078;2024-03-06T00:21:31;2.60;99.90
46900;DHT22;32647;49.382;7.078;2024-03-06T00:24:17;2.60;99.90
46900;DHT22;32647;49.382;7.078;2024-03-06T00:27:03;2.70;99.90
46900;DHT22;32647;49.382;7.078;2024-03-06T00:29:50;2.70;99.90
46900;DHT22;32647;49.382;7.078;2024-03-06T00:32:36;2.70;99.90
46900;DHT22;32647;49.382;7.078;2024-03-06T00:35:22;2.70;99.90
46900;DHT22;32647;49.382;7.078;2024-03-06T00:38:08;2.70;99.90
46900;DHT22;32647;49.382;7.078;2024-03-06T00:40:54;2.70;99.90
46900;DHT22;32647;49.382;7.078;2024-03-06T00:43:40;2.70;99.90
46900;DHT22;32647;49.382;7.078;2024-03-06T00:46:26;2.80;99.90
46900;DHT22;32647;49.382;7.078;2024-03-06T00:49:12;2.80;99.90
46900;DHT22;32647;49.382;7.078;2024-03-06T00:51:58;2.80;99.90
46900;DHT22;32647;49.382;7.078;2024-03-06T00:54:44;2.80;99.90
46900;DHT22;32647;49.382;7.078;2024-03-06T00:57:30;2.80;99.90
46900;DHT22;32647;49.382;7.078;2024-03-06T01:00:16;2.80;99.90
46900;DHT22;32647;49.382;7.078;2024-03-06T01:03:02;2.80;99.90
46900;DHT22;32647;49.382;7.078;2024-03-06T01:05:49;2.90;99.90
46900;DHT22;32647;49.382;7.078;2024-03-06T01:08:35;2.90;99.90
46900;DHT22;32647;49.382;7.078;2024-03-06T01:11:21;2.90;99.90
46900;DHT22;32647;49.382;7.078;2024-03-06T01:14:07;2.80;99.90
46900;DHT22;32647;49.382;7.078;2024-03-06T01:16:53;2.80;99.90
46900;DHT22;32647;49.382;7.078;2024-03-06T01:19:39;2.80;99.90
46900;DHT22;32647;49.382;7.078;2024-03-06T01:22:25;2.80;99.90
46900;DHT22;32647;49.382;7.078;2024-03-06T01:25:11;2.80;99.90
46900;DHT22;32647;49.382;7.078;2024-03-06T01:27:57;2.70;99.90
46900;DHT22;32647;49.382;7.078;2024-03-06T01:30:43;2.70;99.90
46900;DHT22;32647;49.382;7.078;2024-03-06T01:33:29;2.60;99.90
46900;DHT22;32647;49.382;7.078;2024-03-06T01:36:15;2.70;99.90
46900;DHT22;32647;49.382;7.078;2024-03-06T01:39:01;2.70;99.90
46900;DHT22;32647;49.382;7.078;2024-03-06T01:41:49;2.80;99.90
46900;DHT22;32647;49.382;7.078;2024-03-06T01:44:35;2.90;99.90
46900;DHT22;32647;49.382;7.078;2024-03-06T01:47:21;2.90;99.90
46900;DHT22;32647;49.382;7.078;2024-03-06T01:50:10;2.90;99.90
46900;DHT22;32647;49.382;7.078;2024-03-06T01:52:56;2.80;99.90
46900;DHT22;32647;49.382;7.078;2024-03-06T01:55:42;2.80;99.90
46900;DHT22;32647;49.382;7.078;2024-03-06T01:58:29;2.80;99.90
46900;DHT22;32647;49.382;7.078;2024-03-06T02:01:16;2.80;99.90
46900;DHT22;32647;49.382;7.078;2024-03-06T02:04:03;2.80;99.90
46900;DHT22;32647;49.382;7.078;2024-03-06T02:06:49;2.80;99.90
46900;DHT22;32647;49.382;7.078;2024-03-06T02:09:36;2.80;99.90
46900;DHT22;32647;49.382;7.078;2024-03-06T02:12:22;2.80;99.90
46900;DHT22;32647;49.382;7.078;2024-03-06T02:15:08;2.70;99.90
46900;DHT22;32647;49.382;7.078;2024-03-06T02:17:54;2.80;99.90
46900;DHT22;32647;49.382;7.078;2024-03-06T02:20:40;2.70;99.90
46900;DHT22;32647;49.382;7.078;2024-03-06T02:23:26;2.60;99.90
46900;DHT22;32647;49.382;7.078;2024-03-06T02:26:12;2.50;99.90
46900;DHT22;32647;49.382;7.078;2024-03-06T02:28:58;2.50;99.90
46900;DHT22;32647;49.382;7.078;2024-03-06T02:31:44;2.50;99.90
46900;DHT22;32647;49.382;7.078;2024-03-06T02:34:30;2.50;99.90
46900;DHT22;32647;49.382;7.078;2024-03-06T02:37:16;2.40;99.90
46900;DHT22;32647;49.382;7.078;2024-03-06T02:40:04;2.30;99.90
46900;DHT22;32647;49.382;7.078;2024-03-06T02:42:55;2.30;99.90
46900;DHT22;32647;49.382;7.078;2024-03-06T02:45:41;2.40;99.90
46900;DHT22;32647;49.382;7.078;2024-03-06T02:48:27;2.20;99.90
46900;DHT22;32647;49.382;7.078;2024-03-06T02:51:18;2.20;99.90
46900;DHT22;32647;49.382;7.078;2024-03-06T02:54:05;2.20;99.90
46900;DHT22;32647;49.382;7.078;2024-03-06T02:56:51;2.10;99.90
46900;DHT22;32647;49.382;7.078;2024-03-06T02:59:40;2.20;99.90
46900;DHT22;32647;49.382;7.078;2024-03-06T03:02:26;2.30;99.90
46900;DHT22;32647;49.382;7.078;2024-03-06T03:05:12;2.30;99.90
46900;DHT22;32647;49.382;7.078;2024-03-06T03:07:58;2.20;99.90
46900;DHT22;32647;49.382;7.078;2024-03-06T03:10:44;2.30;99.90
46900;DHT22;32647;49.382;7.078;2024-03-06T03:13:30;2.20;99.90
46900;DHT22;32647;49.382;7.078;2024-03-06T03:16:17;2.20;99.90
46900;DHT22;32647;49.382;7.078;2024-03-06T03:19:03;2.20;99.90
46900;DHT22;32647;49.382;7.078;2024-03-06T03:21:49;2.20;99.90
46900;DHT22;32647;49.382;7.078;2024-03-06T03:24:35;2.20;99.90
46900;DHT22;32647;49.382;7.078;2024-03-06T03:27:22;2.20;99.90
46900;DHT22;32647;49.382;7.078;2024-03-06T03:30:10;2.10;99.90
46900;DHT22;32647;49.382;7.078;2024-03-06T03:32:56;2.20;99.90
46900;DHT22;32647;49.382;7.078;2024-03-06T03:35:42;2.20;99.90
46900;DHT22;32647;49.382;7.078;2024-03-06T03:38:28;2.20;99.90
46900;DHT22;32647;49.382;7.078;2024-03-06T03:41:14;2.20;99.90
46900;DHT22;32647;49.382;7.078;2024-03-06T03:44:02;2.20;99.90
46900;DHT22;32647;49.382;7.078;2024-03-06T03:46:48;2.20;99.90
46900;DHT22;32647;49.382;7.078;2024-03-06T03:49:34;2.20;99.90
46900;DHT22;32647;49.382;7.078;2024-03-06T03:52:20;2.10;99.90
46900;DHT22;32647;49.382;7.078;2024-03-06T03:55:07;2.10;99.90
46900;DHT22;32647;49.382;7.078;2024-03-06T03:57:53;2.10;99.90
46900;DHT22;32647;49.382;7.078;2024-03-06T04:00:39;2.10;99.90
46900;DHT22;32647;49.382;7.078;2024-03-06T04:03:25;2.00;99.90
46900;DHT22;32647;49.382;7.078;2024-03-06T04:06:11;2.00;99.90
46900;DHT22;32647;49.382;7.078;2024-03-06T04:08:57;2.00;99.90
46900;DHT22;32647;49.382;7.078;2024-03-06T04:11:43;2.10;99.90
46900;DHT22;32647;49.382;7.078;2024-03-06T04:14:29;2.20;99.90
46900;DHT22;32647;49.382;7.078;2024-03-06T04:17:15;2.10;99.90
46900;DHT22;32647;49.382;7.078;2024-03-06T04:20:02;2.10;99.90
46900;DHT22;32647;49.382;7.078;2024-03-06T04:22:48;2.10;99.90
46900;DHT22;32647;49.382;7.078;2024-03-06T04:25:36;2.00;99.90
46900;DHT22;32647;49.382;7.078;2024-03-06T04:28:23;2.00;99.90
46900;DHT22;32647;49.382;7.078;2024-03-06T04:31:09;1.90;99.90
46900;DHT22;32647;49.382;7.078;2024-03-06T04:33:55;1.80;99.90
46900;DHT22;32647;49.382;7.078;2024-03-06T04:36:41;1.80;99.90
46900;DHT22;32647;49.382;7.078;2024-03-06T04:39:29;1.80;99.90
46900;DHT22;32647;49.382;7.078;2024-03-06T04:42:15;1.70;99.90
46900;DHT22;32647;49.382;7.078;2024-03-06T04:45:12;1.80;99.90
46900;DHT22;32647;49.382;7.078;2024-03-06T04:47:58;1.70;99.90
46900;DHT22;32647;49.382;7.078;2024-03-06T04:50:44;1.70;99.90
46900;DHT22;32647;49.382;7.078;2024-03-06T04:53:30;1.60;99.90
46900;DHT22;32647;49.382;7.078;2024-03-06T04:56:16;1.50;99.90
46900;DHT22;32647;49.382;7.078;2024-03-06T04:59:04;1.50;99.90
46900;DHT22;32647;49.382;7.078;2024-03-06T05:01:50;1.50;99.90
46900;DHT22;32647;49.382;7.078;2024-03-06T05:04:36;1.50;99.90
46900;DHT22;32647;49.382;7.078;2024-03-06T05:07:22;1.50;99.90
46900;DHT22;32647;49.382;7.078;2024-03-06T05:10:08;1.40;99.90
46900;DHT22;32647;49.382;7.078;2024-03-06T05:12:54;1.30;99.90
46900;DHT22;32647;49.382;7.078;2024-03-06T05:15:40;1.30;99.90
46900;DHT22;32647;49.382;7.078;2024-03-06T05:18:26;1.30;99.90
46900;DHT22;32647;49.382;7.078;2024-03-06T05:21:12;1.40;99.90
46900;DHT22;32647;49.382;7.078;2024-03-06T05:23:58;1.40;99.90
46900;DHT22;32647;49.382;7.078;2024-03-06T05:26:44;1.30;99.90
46900;DHT22;32647;49.382;7.078;2024-03-06T05:29:30;1.40;99.90
46900;DHT22;32647;49.382;7.078;2024-03-06T05:32:16;1.40;99.90
46900;DHT22;32647;49.382;7.078;2024-03-06T05:35:02;1.30;99.90
46900;DHT22;32647;49.382;7.078;2024-03-06T05:37:49;1.30;99.90
46900;DHT22;32647;49.382;7.078;2024-03-06T05:40:35;1.30;99.90
46900;DHT22;32647;49.382;7.078;2024-03-06T05:43:23;1.20;99.90
46900;DHT22;32647;49.382;7.078;2024-03-06T05:46:09;1.20;99.90
46900;DHT22;32647;49.382;7.078;2024-03-06T05:48:55;1.10;99.90
46900;DHT22;32647;49.382;7.078;2024-03-06T05:51:40;1.20;99.90
46900;DHT22;32647;49.382;7.078;2024-03-06T05:54:26;1.20;99.90
46900;DHT22;32647;49.382;7.078;2024-03-06T05:57:13;1.20;99.90
46900;DHT22;32647;49.382;7.078;2024-03-06T05:59:59;1.20;99.90
46900;DHT22;32647;49.382;7.078;2024-03-06T06:02:45;1.30;99.90
46900;DHT22;32647;49.382;7.078;2024-03-06T06:05:31;1.30;99.90
46900;DHT22;32647;49.382;7.078;2024-03-06T06:08:17;1.30;99.90
46900;DHT22;32647;49.382;7.078;2024-03-06T06:11:04;1.40;99.90
46900;DHT22;32647;49.382;7.078;2024-03-06T06:13:50;1.50;99.90
46900;DHT22;32647;49.382;7.078;2024-03-06T06:16:39;1.50;99.90
46900;DHT22;32647;49.382;7.078;2024-03-06T06:19:26;1.40;99.90
46900;DHT22;32647;49.382;7.078;2024-03-06T06:22:12;1.40;99.90
46900;DHT22;32647;49.382;7.078;2024-03-06T06:24:58;1.30;99.90
46900;DHT22;32647;49.382;7.078;2024-03-06T06:27:44;1.20;99.90
46900;DHT22;32647;49.382;7.078;2024-03-06T06:30:31;1.30;99.90
46900;DHT22;32647;49.382;7.078;2024-03-06T06:33:18;1.30;99.90
46900;DHT22;32647;49.382;7.078;2024-03-06T06:36:05;1.30;99.90
46900;DHT22;32647;49.382;7.078;2024-03-06T06:38:52;1.30;99.90
46900;DHT22;32647;49.382;7.078;2024-03-06T06:41:38;1.40;99.90
46900;DHT22;32647;49.382;7.078;2024-03-06T06:44:24;1.30;99.90
46900;DHT22;32647;49.382;7.078;2024-03-06T06:47:10;1.30;99.90
46900;DHT22;32647;49.382;7.078;2024-03-06T06:49:56;1.30;99.90
46900;DHT22;32647;49.382;7.078;2024-03-06T06:52:42;1.40;99.90
46900;DHT22;32647;49.382;7.078;2024-03-06T06:55:28;1.50;99.90
46900;DHT22;32647;49.382;7.078;2024-03-06T06:58:14;1.60;99.90
46900;DHT22;32647;49.382;7.078;2024-03-06T07:01:00;1.60;99.90
46900;DHT22;32647;49.382;7.078;2024-03-06T07:03:46;1.60;99.90
46900;DHT22;32647;49.382;7.078;2024-03-06T07:06:32;1.60;99.90
46900;DHT22;32647;49.382;7.078;2024-03-06T07:09:19;1.70;99.90
46900;DHT22;32647;49.382;7.078;2024-03-06T07:12:05;1.70;99.90
46900;DHT22;32647;49.382;7.078;2024-03-06T07:14:51;1.70;99.90
46900;DHT22;32647;49.382;7.078;2024-03-06T07:17:37;1.90;99.90
46900;DHT22;32647;49.382;7.078;2024-03-06T07:20:24;2.00;99.90
46900;DHT22;32647;49.382;7.078;2024-03-06T07:23:10;2.10;99.90
46900;DHT22;32647;49.382;7.078;2024-03-06T07:25:55;2.10;99.90
46900;DHT22;32647;49.382;7.078;2024-03-06T07:28:43;2.30;99.90
46900;DHT22;32647;49.382;7.078;2024-03-06T07:31:29;2.40;99.90
46900;DHT22;32647;49.382;7.078;2024-03-06T07:34:15;2.60;99.90
46900;DHT22;32647;49.382;7.078;2024-03-06T07:37:01;2.70;99.90
46900;DHT22;32647;49.382;7.078;2024-03-06T07:39:47;2.90;99.90
46900;DHT22;32647;49.382;7.078;2024-03-06T07:42:33;2.90;99.90
46900;DHT22;32647;49.382;7.078;2024-03-06T07:45:19;3.00;99.90
46900;DHT22;32647;49.382;7.078;2024-03-06T07:48:06;3.10;99.90
46900;DHT22;32647;49.382;7.078;2024-03-06T07:50:52;3.20;99.90
46900;DHT22;32647;49.382;7.078;2024-03-06T07:53:38;3.20;99.90
46900;DHT22;32647;49.382;7.078;2024-03-06T07:56:25;3.20;99.90
46900;DHT22;32647;49.382;7.078;2024-03-06T07:59:11;3.30;99.90
46900;DHT22;32647;49.382;7.078;2024-03-06T08:02:01;3.30;99.90
46900;DHT22;32647;49.382;7.078;2024-03-06T08:04:47;3.30;99.90
46900;DHT22;32647;49.382;7.078;2024-03-06T08:07:34;3.50;99.90
46900;DHT22;32647;49.382;7.078;2024-03-06T08:10:20;3.50;99.90
46900;DHT22;32647;49.382;7.078;2024-03-06T08:13:06;3.70;99.90
46900;DHT22;32647;49.382;7.078;2024-03-06T08:15:52;3.70;99.90
46900;DHT22;32647;49.382;7.078;2024-03-06T08:18:38;3.90;99.90
46900;DHT22;32647;49.382;7.078;2024-03-06T08:21:24;4.00;99.90
46900;DHT22;32647;49.382;7.078;2024-03-06T08:24:10;4.10;99.90
46900;DHT22;32647;49.382;7.078;2024-03-06T08:26:56;4.10;99.90
46900;DHT22;32647;49.382;7.078;2024-03-06T08:29:42;4.30;99.90
46900;DHT22;32647;49.382;7.078;2024-03-06T08:32:28;4.50;99.90
46900;DHT22;32647;49.382;7.078;2024-03-06T08:35:14;4.60;99.90
46900;DHT22;32647;49.382;7.078;2024-03-06T08:38:01;4.70;99.90
46900;DHT22;32647;49.382;7.078;2024-03-06T08:40:47;4.90;99.90
46900;DHT22;32647;49.382;7.078;2024-03-06T08:43:33;5.10;99.90
46900;DHT22;32647;49.382;7.078;2024-03-06T08:46:19;5.30;99.90
46900;DHT22;32647;49.382;7.078;2024-03-06T08:49:05;5.40;99.90
46900;DHT22;32647;49.382;7.078;2024-03-06T08:51:51;5.40;99.90
46900;DHT22;32647;49.382;7.078;2024-03-06T09:17:38;5.90;99.90
46900;DHT22;32647;49.382;7.078;2024-03-06T09:20:24;5.90;99.90
46900;DHT22;32647;49.382;7.078;2024-03-06T09:23:10;6.10;99.90
46900;DHT22;32647;49.382;7.078;2024-03-06T09:29:00;6.30;99.90
46900;DHT22;32647;49.382;7.078;2024-03-06T09:31:47;6.40;99.90
46900;DHT22;32647;49.382;7.078;2024-03-06T09:34:34;6.50;99.90
46900;DHT22;32647;49.382;7.078;2024-03-06T09:37:20;6.30;99.90
46900;DHT22;32647;49.382;7.078;2024-03-06T09:40:06;6.50;99.90
46900;DHT22;32647;49.382;7.078;2024-03-06T09:42:53;6.70;99.90
46900;DHT22;32647;49.382;7.078;2024-03-06T09:45:39;6.90;99.90
46900;DHT22;32647;49.382;7.078;2024-03-06T09:48:25;6.90;99.90
46900;DHT22;32647;49.382;7.078;2024-03-06T09:51:11;6.90;99.90
46900;DHT22;32647;49.382;7.078;2024-03-06T09:53:58;6.90;99.90
46900;DHT22;32647;49.382;7.078;2024-03-06T09:56:45;6.90;99.90
46900;DHT22;32647;49.382;7.078;2024-03-06T09:59:31;7.00;99.90
46900;DHT22;32647;49.382;7.078;2024-03-06T10:02:31;7.00;99.90
46900;DHT22;32647;49.382;7.078;2024-03-06T10:05:22;7.30;99.90
46900;DHT22;32647;49.382;7.078;2024-03-06T10:08:09;7.30;99.90
46900;DHT22;32647;49.382;7.078;2024-03-06T10:10:56;7.70;99.90
46900;DHT22;32647;49.382;7.078;2024-03-06T10:13:42;7.90;99.90
46900;DHT22;32647;49.382;7.078;2024-03-06T10:16:28;7.90;99.90
46900;DHT22;32647;49.382;7.078;2024-03-06T10:19:18;8.20;99.90
46900;DHT22;32647;49.382;7.078;2024-03-06T10:22:06;8.30;99.90
46900;DHT22;32647;49.382;7.078;2024-03-06T10:24:57;8.30;99.90
46900;DHT22;32647;49.382;7.078;2024-03-06T10:27:43;8.30;99.90
46900;DHT22;32647;49.382;7.078;2024-03-06T10:30:29;8.50;99.90
46900;DHT22;32647;49.382;7.078;2024-03-06T10:33:16;8.80;99.90
46900;DHT22;32647;49.382;7.078;2024-03-06T10:36:04;8.80;99.90
46900;DHT22;32647;49.382;7.078;2024-03-06T10:38:51;8.80;99.90
46900;DHT22;32647;49.382;7.078;2024-03-06T10:41:38;8.90;99.90
46900;DHT22;32647;49.382;7.078;2024-03-06T10:44:26;9.00;99.90
46900;DHT22;32647;49.382;7.078;2024-03-06T10:47:13;9.20;99.90
46900;DHT22;32647;49.382;7.078;2024-03-06T10:50:02;9.30;99.90
46900;DHT22;32647;49.382;7.078;2024-03-06T10:52:53;9.40;99.90
46900;DHT22;32647;49.382;7.078;2024-03-06T10:55:43;9.20;99.90
46900;DHT22;32647;49.382;7.078;2024-03-06T10:58:33;9.30;99.90
46900;DHT22;32647;49.382;7.078;2024-03-06T11:01:20;9.40;99.90
46900;DHT22;32647;49.382;7.078;2024-03-06T11:04:06;9.70;99.90
46900;DHT22;32647;49.382;7.078;2024-03-06T11:06:53;9.70;99.90
46900;DHT22;32647;49.382;7.078;2024-03-06T11:09:39;9.90;99.90
46900;DHT22;32647;49.382;7.078;2024-03-06T11:12:38;9.80;1.00
46900;DHT22;32647;49.382;7.078;2024-03-06T11:15:25;9.90;1.00
46900;DHT22;32647;49.382;7.078;2024-03-06T11:22:03;10.00;99.90
46900;DHT22;32647;49.382;7.078;2024-03-06T11:24:32;9.90;99.90
46900;DHT22;32647;49.382;7.078;2024-03-06T11:27:18;9.90;99.90
46900;DHT22;32647;49.382;7.078;2024-03-06T11:30:07;10.10;1.00
46900;DHT22;32647;49.382;7.078;2024-03-06T11:33:12;10.30;99.90
46900;DHT22;32647;49.382;7.078;2024-03-06T11:39:08;10.00;92.50
46900;DHT22;32647;49.382;7.078;2024-03-06T11:41:54;10.20;99.90
46900;DHT22;32647;49.382;7.078;2024-03-06T11:44:53;10.30;18.90
46900;DHT22;32647;49.382;7.078;2024-03-06T11:48:00;10.20;1.00
46900;DHT22;32647;49.382;7.078;2024-03-06T11:50:47;10.10;99.90
46900;DHT22;32647;49.382;7.078;2024-03-06T11:53:34;10.00;99.90
46900;DHT22;32647;49.382;7.078;2024-03-06T11:56:22;10.30;99.90
46900;DHT22;32647;49.382;7.078;2024-03-06T11:59:08;10.20;1.00
46900;DHT22;32647;49.382;7.078;2024-03-06T12:01:56;10.10;1.00
46900;DHT22;32647;49.382;7.078;2024-03-06T12:04:42;10.10;99.90
46900;DHT22;32647;49.382;7.078;2024-03-06T12:07:28;10.00;99.90
46900;DHT22;32647;49.382;7.078;2024-03-06T12:10:15;10.00;1.00
46900;DHT22;32647;49.382;7.078;2024-03-06T12:13:02;10.10;99.90
46900;DHT22;32647;49.382;7.078;2024-03-06T12:15:48;10.10;1.00
46900;DHT22;32647;49.382;7.078;2024-03-06T12:18:34;10.20;8.40
46900;DHT22;32647;49.382;7.078;2024-03-06T12:21:20;10.30;1.00
46900;DHT22;32647;49.382;7.078;2024-03-06T12:24:08;10.50;99.90
46900;DHT22;32647;49.382;7.078;2024-03-06T12:27:03;10.50;99.90
46900;DHT22;32647;49.382;7.078;2024-03-06T12:29:53;10.30;1.00
46900;DHT22;32647;49.382;7.078;2024-03-06T12:32:39;10.40;96.60
46900;DHT22;32647;49.382;7.078;2024-03-06T12:35:25;10.60;1.00
46900;DHT22;32647;49.382;7.078;2024-03-06T12:38:15;10.70;45.00
46900;DHT22;32647;49.382;7.078;2024-03-06T12:41:01;10.60;15.60
46900;DHT22;32647;49.382;7.078;2024-03-06T12:43:47;10.90;99.90
46900;DHT22;32647;49.382;7.078;2024-03-06T12:46:33;10.80;99.90
46900;DHT22;32647;49.382;7.078;2024-03-06T12:49:20;10.50;1.00
46900;DHT22;32647;49.382;7.078;2024-03-06T12:52:06;10.60;1.00
46900;DHT22;32647;49.382;7.078;2024-03-06T12:54:52;10.50;1.00
46900;DHT22;32647;49.382;7.078;2024-03-06T12:57:38;10.40;1.00
46900;DHT22;32647;49.382;7.078;2024-03-06T13:00:24;10.40;99.90
46900;DHT22;32647;49.382;7.078;2024-03-06T13:03:10;10.50;1.00
46900;DHT22;32647;49.382;7.078;2024-03-06T13:05:56;10.50;1.00
46900;DHT22;32647;49.382;7.078;2024-03-06T13:08:42;10.60;99.90
46900;DHT22;32647;49.382;7.078;2024-03-06T13:11:28;10.70;99.90
46900;DHT22;32647;49.382;7.078;2024-03-06T13:14:14;10.80;70.50
46900;DHT22;32647;49.382;7.078;2024-03-06T13:17:00;10.90;99.90
46900;DHT22;32647;49.382;7.078;2024-03-06T13:19:46;10.80;47.80
46900;DHT22;32647;49.382;7.078;2024-03-06T13:22:32;10.80;99.90
46900;DHT22;32647;49.382;7.078;2024-03-06T13:25:18;10.60;61.20
46900;DHT22;32647;49.382;7.078;2024-03-06T13:28:05;10.80;40.60
46900;DHT22;32647;49.382;7.078;2024-03-06T13:30:51;10.90;99.90
46900;DHT22;32647;49.382;7.078;2024-03-06T13:33:37;11.00;99.90
46900;DHT22;32647;49.382;7.078;2024-03-06T13:36:23;11.00;99.90
46900;DHT22;32647;49.382;7.078;2024-03-06T13:39:09;10.80;56.70
46900;DHT22;32647;49.382;7.078;2024-03-06T13:41:54;10.70;88.10
46900;DHT22;32647;49.382;7.078;2024-03-06T13:44:40;10.70;76.10
46900;DHT22;32647;49.382;7.078;2024-03-06T13:47:26;10.70;99.90
46900;DHT22;32647;49.382;7.078;2024-03-06T13:50:14;10.70;99.90
46900;DHT22;32647;49.382;7.078;2024-03-06T13:53:00;10.60;1.00
46900;DHT22;32647;49.382;7.078;2024-03-06T13:55:46;10.60;99.90
46900;DHT22;32647;49.382;7.078;2024-03-06T13:58:32;10.40;99.90
46900;DHT22;32647;49.382;7.078;2024-03-06T14:01:18;10.50;99.90
46900;DHT22;32647;49.382;7.078;2024-03-06T14:04:04;10.50;1.00
46900;DHT22;32647;49.382;7.078;2024-03-06T14:06:50;10.50;1.00
46900;DHT22;32647;49.382;7.078;2024-03-06T14:09:36;10.60;99.90
46900;DHT22;32647;49.382;7.078;2024-03-06T14:12:23;10.50;1.00
46900;DHT22;32647;49.382;7.078;2024-03-06T14:15:09;10.50;99.90
46900;DHT22;32647;49.382;7.078;2024-03-06T14:17:58;10.60;8.00
46900;DHT22;32647;49.382;7.078;2024-03-06T14:20:44;10.40;99.90
46900;DHT22;32647;49.382;7.078;2024-03-06T14:23:30;10.40;99.90
46900;DHT22;32647;49.382;7.078;2024-03-06T14:26:17;10.60;53.20
46900;DHT22;32647;49.382;7.078;2024-03-06T14:29:05;10.50;99.90
46900;DHT22;32647;49.382;7.078;2024-03-06T14:31:52;10.40;99.90
46900;DHT22;32647;49.382;7.078;2024-03-06T14:34:38;10.40;1.00
46900;DHT22;32647;49.382;7.078;2024-03-06T14:37:24;10.50;1.00
46900;DHT22;32647;49.382;7.078;2024-03-06T14:40:11;10.50;1.00
46900;DHT22;32647;49.382;7.078;2024-03-06T14:42:57;10.30;99.90
46900;DHT22;32647;49.382;7.078;2024-03-06T14:45:45;10.30;1.00
46900;DHT22;32647;49.382;7.078;2024-03-06T14:48:32;10.30;1.00
46900;DHT22;32647;49.382;7.078;2024-03-06T14:51:19;10.40;1.00
46900;DHT22;32647;49.382;7.078;2024-03-06T14:54:05;10.30;99.90
46900;DHT22;32647;49.382;7.078;2024-03-06T14:56:52;10.20;99.90
46900;DHT22;32647;49.382;7.078;2024-03-06T14:59:38;10.30;99.90
46900;DHT22;32647;49.382;7.078;2024-03-06T15:02:24;10.50;1.00
46900;DHT22;32647;49.382;7.078;2024-03-06T15:05:10;10.70;99.90
46900;DHT22;32647;49.382;7.078;2024-03-06T15:07:57;10.80;99.90
46900;DHT22;32647;49.382;7.078;2024-03-06T15:10:44;10.70;99.90
46900;DHT22;32647;49.382;7.078;2024-03-06T15:13:30;10.60;99.90
46900;DHT22;32647;49.382;7.078;2024-03-06T15:16:16;10.50;99.90
46900;DHT22;32647;49.382;7.078;2024-03-06T15:19:02;10.40;1.00
46900;DHT22;32647;49.382;7.078;2024-03-06T15:21:49;10.20;99.90
46900;DHT22;32647;49.382;7.078;2024-03-06T15:24:35;10.00;1.00
46900;DHT22;32647;49.382;7.078;2024-03-06T15:27:20;9.90;57.70
46900;DHT22;32647;49.382;7.078;2024-03-06T15:30:08;9.70;1.00
46900;DHT22;32647;49.382;7.078;2024-03-06T15:32:54;9.60;99.90
46900;DHT22;32647;49.382;7.078;2024-03-06T15:35:40;9.60;99.90
46900;DHT22;32647;49.382;7.078;2024-03-06T15:41:02;9.60;1.00
46900;DHT22;32647;49.382;7.078;2024-03-06T15:43:48;9.60;99.90
46900;DHT22;32647;49.382;7.078;2024-03-06T15:46:34;9.60;1.00
46900;DHT22;32647;49.382;7.078;2024-03-06T15:49:22;9.50;9.10
46900;DHT22;32647;49.382;7.078;2024-03-06T15:52:11;9.50;99.90
46900;DHT22;32647;49.382;7.078;2024-03-06T15:54:56;9.40;99.90
46900;DHT22;32647;49.382;7.078;2024-03-06T15:57:42;9.30;99.90
46900;DHT22;32647;49.382;7.078;2024-03-06T16:00:30;9.40;99.90
46900;DHT22;32647;49.382;7.078;2024-03-06T16:03:16;9.30;99.90
46900;DHT22;32647;49.382;7.078;2024-03-06T16:06:02;9.30;1.00
46900;DHT22;32647;49.382;7.078;2024-03-06T16:08:48;9.20;1.00
46900;DHT22;32647;49.382;7.078;2024-03-06T16:11:34;9.20;99.90
46900;DHT22;32647;49.382;7.078;2024-03-06T16:14:20;9.20;99.90
46900;DHT22;32647;49.382;7.078;2024-03-06T16:17:07;9.20;99.90
46900;DHT22;32647;49.382;7.078;2024-03-06T16:19:53;9.10;33.40
46900;DHT22;32647;49.382;7.078;2024-03-06T16:22:39;9.10;45.30
46900;DHT22;32647;49.382;7.078;2024-03-06T16:25:25;9.10;1.00
46900;DHT22;32647;49.382;7.078;2024-03-06T16:28:11;9.00;99.90
46900;DHT22;32647;49.382;7.078;2024-03-06T16:30:56;8.90;1.00
46900;DHT22;32647;49.382;7.078;2024-03-06T16:33:43;8.90;99.90
46900;DHT22;32647;49.382;7.078;2024-03-06T16:36:31;8.80;99.90
46900;DHT22;32647;49.382;7.078;2024-03-06T16:39:17;8.90;1.00
46900;DHT22;32647;49.382;7.078;2024-03-06T16:42:03;8.80;1.00
46900;DHT22;32647;49.382;7.078;2024-03-06T16:44:50;8.80;1.00
46900;DHT22;32647;49.382;7.078;2024-03-06T16:47:35;8.80;1.00
46900;DHT22;32647;49.382;7.078;2024-03-06T16:50:22;8.80;1.00
46900;DHT22;32647;49.382;7.078;2024-03-06T16:53:08;8.80;1.00
46900;DHT22;32647;49.382;7.078;2024-03-06T16:55:54;8.80;1.00
46900;DHT22;32647;49.382;7.078;2024-03-06T16:58:40;8.70;22.40
46900;DHT22;32647;49.382;7.078;2024-03-06T17:01:26;8.60;1.00
46900;DHT22;32647;49.382;7.078;2024-03-06T17:04:12;8.60;1.00
46900;DHT22;32647;49.382;7.078;2024-03-06T17:06:58;8.70;1.00
46900;DHT22;32647;49.382;7.078;2024-03-06T17:09:46;8.60;1.00
46900;DHT22;32647;49.382;7.078;2024-03-06T17:12:32;8.60;1.00
46900;DHT22;32647;49.382;7.078;2024-03-06T17:15:18;8.60;1.00
46900;DHT22;32647;49.382;7.078;2024-03-06T17:18:05;8.50;1.00
46900;DHT22;32647;49.382;7.078;2024-03-06T17:20:51;8.50;1.00
46900;DHT22;32647;49.382;7.078;2024-03-06T17:23:38;8.50;11.40
46900;DHT22;32647;49.382;7.078;2024-03-06T17:26:24;8.40;24.20
46900;DHT22;32647;49.382;7.078;2024-03-06T17:29:10;8.40;40.50
46900;DHT22;32647;49.382;7.078;2024-03-06T17:31:56;8.40;36.20
46900;DHT22;32647;49.382;7.078;2024-03-06T17:34:42;8.30;65.10
46900;DHT22;32647;49.382;7.078;2024-03-06T17:37:28;8.30;99.70
46900;DHT22;32647;49.382;7.078;2024-03-06T17:40:14;8.30;65.90
46900;DHT22;32647;49.382;7.078;2024-03-06T17:43:00;8.30;68.30
46900;DHT22;32647;49.382;7.078;2024-03-06T17:45:46;8.30;57.30
46900;DHT22;32647;49.382;7.078;2024-03-06T17:48:32;8.30;30.10
46900;DHT22;32647;49.382;7.078;2024-03-06T17:51:18;8.20;99.90
46900;DHT22;32647;49.382;7.078;2024-03-06T17:54:04;8.20;90.10
46900;DHT22;32647;49.382;7.078;2024-03-06T17:56:56;8.20;96.30
46900;DHT22;32647;49.382;7.078;2024-03-06T17:59:44;8.00;99.90
46900;DHT22;32647;49.382;7.078;2024-03-06T18:02:30;7.90;99.90
46900;DHT22;32647;49.382;7.078;2024-03-06T18:05:16;7.90;99.90
46900;DHT22;32647;49.382;7.078;2024-03-06T18:08:02;7.70;99.90
46900;DHT22;32647;49.382;7.078;2024-03-06T18:10:49;7.60;99.90
46900;DHT22;32647;49.382;7.078;2024-03-06T18:13:35;7.70;99.90
46900;DHT22;32647;49.382;7.078;2024-03-06T18:16:21;7.70;99.90
46900;DHT22;32647;49.382;7.078;2024-03-06T18:19:07;7.70;99.90
46900;DHT22;32647;49.382;7.078;2024-03-06T18:21:53;7.70;99.90
46900;DHT22;32647;49.382;7.078;2024-03-06T18:24:39;7.60;99.90